Time,TemperatureF,DewpointF,PressureIn,WindDirection,WindDirectionDegrees,WindSpeedMPH,WindSpeedGustMPH,Humidity,HourlyPrecipIn,Conditions,Clouds,dailyrainin,SolarRadiationWatts/m^2,SoftwareType,DateUTC
2013-07-27 00:02:00,67.0,59.0,29.96,WSW,238,0.0,0.0,75,0.00,,,0.00,0.000000,,2013-07-27 04:02:00,
2013-07-27 00:12:00,66.0,58.0,29.96,WSW,238,0.0,0.0,76,0.00,,,0.00,0.000000,,2013-07-27 04:12:00,
2013-07-27 00:22:00,66.0,58.0,29.96,WSW,238,0.0,0.0,76,0.00,,,0.00,0.000000,,2013-07-27 04:22:00,
2013-07-27 00:32:00,66.0,59.0,29.96,WSW,238,0.0,0.0,78,0.00,,,0.00,0.000000,,2013-07-27 04:32:00,
2013-07-27 00:43:00,65.0,58.0,29.96,WSW,238,0.0,0.0,78,0.00,,,0.00,0.000000,,2013-07-27 04:43:00,
2013-07-27 00:53:00,65.0,58.0,29.96,WSW,238,0.0,0.0,78,0.00,,,0.00,0.000000,,2013-07-27 04:53:00,
2013-07-27 01:02:00,65.0,59.0,29.96,WSW,238,0.0,0.0,80,0.00,,,0.00,0.000000,,2013-07-27 05:02:00,
2013-07-27 01:32:00,64.0,58.0,29.96,WSW,238,0.0,1.0,81,0.00,,,0.00,0.000000,,2013-07-27 05:32:00,
2013-07-27 01:43:00,64.0,58.0,29.96,WSW,238,0.0,0.0,80,0.00,,,0.00,0.000000,,2013-07-27 05:43:00,
2013-07-27 01:52:00,64.0,58.0,29.96,WSW,238,0.0,0.0,80,0.00,,,0.00,0.000000,,2013-07-27 05:52:00,
2013-07-27 02:02:00,64.0,58.0,29.96,WSW,238,0.0,0.0,80,0.00,,,0.00,0.000000,,2013-07-27 06:02:00,
2013-07-27 02:33:00,64.0,58.0,29.96,WSW,238,0.0,0.0,82,0.00,,,0.00,0.000000,,2013-07-27 06:33:00,
2013-07-27 02:43:00,63.0,58.0,29.95,WSW,238,0.0,0.0,83,0.00,,,0.00,0.000000,,2013-07-27 06:43:00,
2013-07-27 03:02:00,63.0,58.0,29.96,WSW,238,0.0,0.0,83,0.00,,,0.00,0.000000,,2013-07-27 07:02:00,
2013-07-27 03:34:00,62.0,58.0,29.95,WSW,238,0.0,0.0,86,0.00,,,0.00,0.000000,,2013-07-27 07:34:00,
2013-07-27 03:44:00,61.0,57.0,29.95,WSW,238,0.0,0.0,87,0.00,,,0.00,0.000000,,2013-07-27 07:44:00,
2013-07-27 03:52:00,61.0,57.0,29.94,WSW,238,0.0,0.0,87,0.00,,,0.00,0.000000,,2013-07-27 07:52:00,
2013-07-27 04:02:00,61.0,57.0,29.94,WSW,238,0.0,0.0,87,0.00,,,0.00,0.000000,,2013-07-27 08:02:00,
2013-07-27 04:12:00,61.0,57.0,29.94,WSW,238,0.0,0.0,87,0.00,,,0.00,0.000000,,2013-07-27 08:12:00,
2013-07-27 04:43:00,60.0,57.0,29.94,WSW,238,0.0,0.0,89,0.00,,,0.00,0.000000,,2013-07-27 08:43:00,
2013-07-27 04:53:00,60.0,57.0,29.94,WSW,238,0.0,0.0,89,0.00,,,0.00,0.000000,,2013-07-27 08:53:00,
2013-07-27 05:02:00,60.0,57.0,29.94,WSW,238,0.0,0.0,89,0.00,,,0.00,0.000000,,2013-07-27 09:02:00,
2013-07-27 05:12:00,59.0,56.0,29.95,WSW,238,0.0,0.0,90,0.00,,,0.00,0.000000,,2013-07-27 09:12:00,
2013-07-27 05:33:00,59.0,56.0,29.95,WSW,238,0.0,0.0,90,0.00,,,0.00,0.000000,,2013-07-27 09:33:00,
2013-07-27 05:44:00,59.0,56.0,29.95,WSW,238,0.0,0.0,90,0.00,,,0.00,0.000000,,2013-07-27 09:44:00,
2013-07-27 05:52:00,59.0,56.0,29.95,WSW,238,0.0,0.0,91,0.00,,,0.00,0.000000,,2013-07-27 09:52:00,
2013-07-27 06:02:00,59.0,56.0,29.95,WSW,238,0.0,0.0,91,0.00,,,0.00,0.000000,,2013-07-27 10:02:00,
2013-07-27 06:12:00,59.0,56.0,29.96,WSW,238,0.0,0.0,91,0.00,,,0.00,5.000000,,2013-07-27 10:12:00,
2013-07-27 06:32:00,59.0,57.0,29.96,WSW,238,0.0,0.0,92,0.00,,,0.00,11.000000,,2013-07-27 10:32:00,
2013-07-27 06:43:00,58.0,56.0,29.96,WSW,238,0.0,0.0,92,0.00,,,0.00,19.000000,,2013-07-27 10:43:00,
2013-07-27 07:02:00,58.0,56.0,29.96,WSW,238,0.0,0.0,92,0.00,,,0.00,25.000000,,2013-07-27 11:02:00,
2013-07-27 07:32:00,59.0,57.0,29.95,WSW,238,0.0,0.0,93,0.00,,,0.00,33.000000,,2013-07-27 11:32:00,
2013-07-27 07:44:00,59.0,57.0,29.95,WSW,238,0.0,0.0,93,0.00,,,0.00,33.000000,,2013-07-27 11:44:00,
2013-07-27 07:52:00,59.0,57.0,29.95,WSW,238,0.0,0.0,93,0.00,,,0.00,33.000000,,2013-07-27 11:52:00,
2013-07-27 08:03:00,61.0,59.0,29.96,WSW,238,0.0,0.0,94,0.00,,,0.00,248.000000,,2013-07-27 12:03:00,
2013-07-27 08:33:00,65.0,63.0,29.96,SE,134,0.0,3.0,93,0.00,,,0.00,318.000000,,2013-07-27 12:33:00,
2013-07-27 08:43:00,67.0,63.0,29.96,WSW,244,0.0,5.0,87,0.00,,,0.00,308.000000,,2013-07-27 12:43:00,
2013-07-27 08:52:00,67.0,63.0,29.96,WSW,244,0.0,5.0,87,0.00,,,0.00,308.000000,,2013-07-27 12:52:00,
2013-07-27 09:02:00,69.0,64.0,29.96,WSW,245,0.0,3.0,83,0.00,,,0.00,246.000000,,2013-07-27 13:02:00,
2013-07-27 09:22:00,70.0,64.0,29.96,SW,219,0.0,6.0,80,0.00,,,0.00,462.000000,,2013-07-27 13:22:00,
2013-07-27 09:32:00,72.0,65.0,29.96,WSW,238,0.0,4.0,79,0.00,,,0.00,510.000000,,2013-07-27 13:32:00,
2013-07-27 09:44:00,73.0,65.0,29.96,West,267,0.0,3.0,77,0.00,,,0.00,575.000000,,2013-07-27 13:44:00,
2013-07-27 10:02:00,73.0,64.0,29.96,West,280,2.0,6.0,73,0.00,,,0.00,570.000000,,2013-07-27 14:02:00,
2013-07-27 10:32:00,75.0,65.0,29.96,WSW,248,0.0,4.0,71,0.00,,,0.00,561.000000,,2013-07-27 14:32:00,
2013-07-27 10:44:00,75.0,65.0,29.96,NNW,338,0.0,3.0,71,0.00,,,0.00,749.000000,,2013-07-27 14:44:00,
2013-07-27 10:54:00,76.0,64.0,29.96,West,268,1.0,5.0,67,0.00,,,0.00,777.000000,,2013-07-27 14:54:00,
2013-07-27 11:02:00,76.0,64.0,29.96,West,268,1.0,5.0,67,0.00,,,0.00,777.000000,,2013-07-27 15:02:00,
2013-07-27 11:12:00,76.0,64.0,29.96,WSW,238,0.0,5.0,66,0.00,,,0.00,473.000000,,2013-07-27 15:12:00,
2013-07-27 11:22:00,76.0,64.0,29.96,WSW,238,0.0,5.0,66,0.00,,,0.00,473.000000,,2013-07-27 15:22:00,
2013-07-27 11:44:00,76.0,65.0,29.96,SE,146,0.0,5.0,69,0.00,,,0.00,830.000000,,2013-07-27 15:44:00,
2013-07-27 11:53:00,76.0,65.0,29.96,SE,146,0.0,5.0,69,0.00,,,0.00,830.000000,,2013-07-27 15:53:00,
2013-07-27 12:02:00,78.0,65.0,29.96,SSW,206,2.0,8.0,64,0.00,,,0.00,918.000000,,2013-07-27 16:02:00,
2013-07-27 12:23:00,77.0,64.0,29.96,NW,309,1.0,5.0,64,0.00,,,0.00,584.000000,,2013-07-27 16:23:00,
2013-07-27 12:33:00,77.0,64.0,29.96,West,261,0.0,6.0,65,0.00,,,0.00,396.000000,,2013-07-27 16:33:00,
2013-07-27 12:43:00,78.0,63.0,29.96,South,184,3.0,8.0,61,0.00,,,0.00,473.000000,,2013-07-27 16:43:00,
2013-07-27 12:53:00,78.0,63.0,29.96,South,184,3.0,8.0,61,0.00,,,0.00,473.000000,,2013-07-27 16:53:00,
2013-07-27 13:02:00,78.0,65.0,29.96,SE,131,1.0,5.0,64,0.00,,,0.00,,,2013-07-27 17:02:00,
2013-07-27 13:13:00,78.0,64.0,29.96,WNW,299,0.0,7.0,62,0.00,,,0.00,733.000000,,2013-07-27 17:13:00,
2013-07-27 13:23:00,78.0,64.0,29.96,WNW,299,0.0,7.0,62,0.00,,,0.00,733.000000,,2013-07-27 17:23:00,
2013-07-27 13:32:00,79.0,64.0,29.95,SSE,163,1.0,8.0,61,0.00,,,0.00,835.000000,,2013-07-27 17:32:00,
2013-07-27 13:43:00,78.0,63.0,29.95,South,169,0.0,5.0,61,0.00,,,0.00,309.000000,,2013-07-27 17:43:00,
2013-07-27 13:53:00,78.0,63.0,29.95,South,169,0.0,5.0,61,0.00,,,0.00,309.000000,,2013-07-27 17:53:00,
2013-07-27 14:03:00,79.0,66.0,29.94,WSW,253,0.0,5.0,64,0.00,,,0.00,714.000000,,2013-07-27 18:03:00,
2013-07-27 14:12:00,79.0,64.0,29.94,NNW,330,0.0,4.0,60,0.00,,,0.00,385.000000,,2013-07-27 18:12:00,
2013-07-27 14:33:00,80.0,64.0,29.93,SSW,211,0.0,5.0,59,0.00,,,0.00,,,2013-07-27 18:33:00,
2013-07-27 14:43:00,80.0,64.0,29.93,SW,236,2.0,5.0,58,0.00,,,0.00,944.000000,,2013-07-27 18:43:00,
2013-07-27 14:53:00,80.0,64.0,29.93,SW,236,2.0,5.0,58,0.00,,,0.00,944.000000,,2013-07-27 18:53:00,
2013-07-27 15:02:00,80.0,63.0,29.92,WSW,238,1.0,6.0,57,0.00,,,0.00,253.000000,,2013-07-27 19:02:00,
2013-07-27 15:12:00,81.0,64.0,29.91,West,268,0.0,5.0,57,0.00,,,0.00,944.000000,,2013-07-27 19:12:00,
2013-07-27 15:23:00,81.0,64.0,29.91,West,268,0.0,5.0,57,0.00,,,0.00,944.000000,,2013-07-27 19:23:00,
2013-07-27 15:32:00,81.0,64.0,29.91,West,268,0.0,5.0,57,0.00,,,0.00,944.000000,,2013-07-27 19:32:00,
2013-07-27 15:43:00,81.0,65.0,29.91,WSW,238,1.0,5.0,59,0.00,,,0.00,905.000000,,2013-07-27 19:43:00,
2013-07-27 15:53:00,81.0,65.0,29.91,WSW,238,1.0,5.0,59,0.00,,,0.00,905.000000,,2013-07-27 19:53:00,
2013-07-27 16:02:00,82.0,64.0,29.90,East,94,1.0,6.0,55,0.00,,,0.00,849.000000,,2013-07-27 20:02:00,
2013-07-27 16:12:00,82.0,64.0,29.90,East,94,1.0,6.0,55,0.00,,,0.00,849.000000,,2013-07-27 20:12:00,
2013-07-27 16:23:00,81.0,65.0,29.90,SSE,168,1.0,6.0,58,0.00,,,0.00,786.000000,,2013-07-27 20:23:00,
2013-07-27 16:32:00,81.0,64.0,29.89,SE,134,0.0,4.0,57,0.00,,,0.00,754.000000,,2013-07-27 20:32:00,
2013-07-27 16:43:00,81.0,63.0,29.89,SSW,205,0.0,3.0,55,0.00,,,0.00,221.000000,,2013-07-27 20:43:00,
2013-07-27 16:52:00,81.0,63.0,29.89,SSW,205,0.0,3.0,55,0.00,,,0.00,221.000000,,2013-07-27 20:52:00,
2013-07-27 17:03:00,80.0,63.0,29.88,SSW,204,0.0,2.0,57,0.00,,,0.00,408.000000,,2013-07-27 21:03:00,
2013-07-27 17:12:00,81.0,63.0,29.88,ESE,120,0.0,4.0,55,0.00,,,0.00,330.000000,,2013-07-27 21:12:00,
2013-07-27 17:23:00,81.0,63.0,29.88,ESE,120,0.0,4.0,55,0.00,,,0.00,330.000000,,2013-07-27 21:23:00,
2013-07-27 17:33:00,81.0,64.0,29.88,ENE,57,0.0,5.0,56,0.00,,,0.00,172.000000,,2013-07-27 21:33:00,
2013-07-27 17:43:00,80.0,63.0,29.87,South,184,0.0,5.0,57,0.00,,,0.00,260.000000,,2013-07-27 21:43:00,
2013-07-27 17:52:00,80.0,63.0,29.87,South,184,0.0,5.0,57,0.00,,,0.00,260.000000,,2013-07-27 21:52:00,
2013-07-27 18:02:00,80.0,63.0,29.86,SE,127,0.0,5.0,57,0.00,,,0.00,608.000000,,2013-07-27 22:02:00,
2013-07-27 18:12:00,81.0,63.0,29.86,South,189,0.0,4.0,55,0.00,,,0.00,339.000000,,2013-07-27 22:12:00,
2013-07-27 18:22:00,81.0,63.0,29.86,South,189,0.0,4.0,55,0.00,,,0.00,339.000000,,2013-07-27 22:22:00,
2013-07-27 18:33:00,82.0,64.0,29.85,SE,134,0.0,7.0,54,0.00,,,0.00,183.000000,,2013-07-27 22:33:00,
2013-07-27 18:43:00,81.0,65.0,29.85,SW,219,0.0,4.0,59,0.00,,,0.00,308.000000,,2013-07-27 22:43:00,
2013-07-27 18:53:00,81.0,65.0,29.85,SW,219,0.0,4.0,59,0.00,,,0.00,308.000000,,2013-07-27 22:53:00,
2013-07-27 19:02:00,80.0,66.0,29.86,South,169,1.0,4.0,62,0.00,,,0.00,97.000000,,2013-07-27 23:02:00,
2013-07-27 19:12:00,78.0,65.0,29.87,SSE,157,0.0,5.0,64,0.00,,,0.00,83.000000,,2013-07-27 23:12:00,
2013-07-27 19:22:00,78.0,65.0,29.87,SSE,157,0.0,5.0,64,0.00,,,0.00,83.000000,,2013-07-27 23:22:00,
2013-07-27 19:32:00,76.0,64.0,29.87,SW,218,0.0,6.0,66,0.00,,,0.00,35.000000,,2013-07-27 23:32:00,
2013-07-27 19:44:00,75.0,64.0,29.88,SE,144,0.0,6.0,68,0.00,,,0.00,25.000000,,2013-07-27 23:44:00,
2013-07-27 19:53:00,75.0,64.0,29.88,SE,144,0.0,6.0,68,0.00,,,0.00,25.000000,,2013-07-27 23:53:00,
2013-07-27 20:02:00,74.0,63.0,29.88,South,190,0.0,4.0,69,0.00,,,0.00,14.000000,,2013-07-28 00:02:00,
2013-07-27 20:12:00,74.0,64.0,29.89,ESE,109,0.0,7.0,70,0.00,,,0.00,9.000000,,2013-07-28 00:12:00,
2013-07-27 20:23:00,74.0,64.0,29.89,ESE,109,0.0,7.0,70,0.00,,,0.00,9.000000,,2013-07-28 00:23:00,
2013-07-27 20:32:00,73.0,63.0,29.89,ESE,111,0.0,2.0,71,0.00,,,0.00,0.000000,,2013-07-28 00:32:00,
2013-07-27 20:53:00,72.0,62.0,29.90,South,170,1.0,7.0,71,0.00,,,0.00,0.000000,,2013-07-28 00:53:00,
2013-07-27 21:02:00,71.0,61.0,29.90,SE,146,0.0,2.0,71,0.00,,,0.00,0.000000,,2013-07-28 01:02:00,
2013-07-27 21:12:00,71.0,62.0,29.90,SSE,161,0.0,0.0,72,0.00,,,0.00,0.000000,,2013-07-28 01:12:00,
2013-07-27 21:23:00,71.0,62.0,29.90,SSE,161,0.0,0.0,72,0.00,,,0.00,0.000000,,2013-07-28 01:23:00,
2013-07-27 21:32:00,70.0,61.0,29.91,SSE,161,0.0,0.0,73,0.00,,,0.00,0.000000,,2013-07-28 01:32:00,
2013-07-27 21:43:00,70.0,61.0,29.91,SE,140,0.0,3.0,74,0.00,,,0.00,0.000000,,2013-07-28 01:43:00,
2013-07-27 21:53:00,70.0,61.0,29.91,SE,140,0.0,3.0,74,0.00,,,0.00,0.000000,,2013-07-28 01:53:00,
2013-07-27 22:03:00,69.0,61.0,29.91,SE,138,0.0,1.0,75,0.00,,,0.00,0.000000,,2013-07-28 02:03:00,
2013-07-27 22:12:00,69.0,61.0,29.91,SE,128,0.0,0.0,76,0.00,,,0.00,0.000000,,2013-07-28 02:12:00,
2013-07-27 22:23:00,69.0,61.0,29.91,SE,128,0.0,0.0,76,0.00,,,0.00,0.000000,,2013-07-28 02:23:00,
2013-07-27 22:32:00,68.0,60.0,29.91,SE,130,0.0,1.0,76,0.00,,,0.00,0.000000,,2013-07-28 02:32:00,
2013-07-27 22:53:00,68.0,61.0,29.90,SE,130,0.0,0.0,78,0.00,,,0.00,0.000000,,2013-07-28 02:53:00,
2013-07-27 23:03:00,67.0,61.0,29.90,SE,130,0.0,0.0,80,0.00,,,0.00,0.000000,,2013-07-28 03:03:00,
2013-07-27 23:12:00,67.0,61.0,29.89,SE,130,0.0,0.0,81,0.00,,,0.00,0.000000,,2013-07-28 03:12:00,
2013-07-27 23:22:00,67.0,61.0,29.89,SE,130,0.0,0.0,81,0.00,,,0.00,0.000000,,2013-07-28 03:22:00,
2013-07-27 23:32:00,67.0,61.0,29.88,SE,130,0.0,0.0,81,0.00,,,0.00,0.000000,,2013-07-28 03:32:00,
2013-07-27 23:42:00,67.0,61.0,29.88,SE,130,0.0,0.0,82,0.00,,,0.00,0.000000,,2013-07-28 03:42:00,
2013-07-27 23:53:00,67.0,61.0,29.88,SE,130,0.0,0.0,82,0.00,,,0.00,0.000000,,2013-07-28 03:53:00,